sensor_id;sensor_type;location;lat;lon;timestamp;P1;durP1;ratioP1;P2;durP2;ratioP2
20956;SDS011;10637;47.970;7.830;2023-03-01T00:02:10;33.27;;;19.97;;
20956;SDS011;10637;47.970;7.830;2023-03-01T00:07:12;31.80;;;19.07;;
20956;SDS011;10637;47.970;7.830;2023-03-01T00:12:13;29.37;;;19.30;;
20956;SDS011;10637;47.970;7.830;2023-03-01T00:17:15;34.13;;;19.60;;
20956;SDS011;10637;47.970;7.830;2023-03-01T00:22:18;34.30;;;18.33;;
20956;SDS011;10637;47.970;7.830;2023-03-01T00:27:19;29.20;;;18.03;;
20956;SDS011;10637;47.970;7.830;2023-03-01T00:32:21;31.47;;;18.10;;
20956;SDS011;10637;47.970;7.830;2023-03-01T00:37:23;33.10;;;18.33;;
20956;SDS011;10637;47.970;7.830;2023-03-01T00:42:25;31.90;;;17.93;;
20956;SDS011;10637;47.970;7.830;2023-03-01T00:47:28;28.50;;;17.30;;
20956;SDS011;10637;47.970;7.830;2023-03-01T00:52:30;32.83;;;17.50;;
20956;SDS011;10637;47.970;7.830;2023-03-01T00:57:32;28.87;;;17.90;;
20956;SDS011;10637;47.970;7.830;2023-03-01T01:02:34;31.53;;;17.30;;
20956;SDS011;10637;47.970;7.830;2023-03-01T01:07:37;32.60;;;17.87;;
20956;SDS011;10637;47.970;7.830;2023-03-01T01:12:39;31.53;;;18.10;;
20956;SDS011;10637;47.970;7.830;2023-03-01T01:17:41;31.63;;;17.83;;
20956;SDS011;10637;47.970;7.830;2023-03-01T01:22:43;28.57;;;16.87;;
20956;SDS011;10637;47.970;7.830;2023-03-01T01:27:45;31.43;;;17.53;;
20956;SDS011;10637;47.970;7.830;2023-03-01T01:32:47;29.57;;;17.63;;
20956;SDS011;10637;47.970;7.830;2023-03-01T01:37:48;34.40;;;17.93;;
20956;SDS011;10637;47.970;7.830;2023-03-01T01:42:50;29.60;;;17.07;;
20956;SDS011;10637;47.970;7.830;2023-03-01T01:47:52;37.87;;;19.17;;
20956;SDS011;10637;47.970;7.830;2023-03-01T01:52:56;32.27;;;17.93;;
20956;SDS011;10637;47.970;7.830;2023-03-01T01:57:59;32.00;;;18.50;;
20956;SDS011;10637;47.970;7.830;2023-03-01T02:03:04;31.57;;;17.47;;
20956;SDS011;10637;47.970;7.830;2023-03-01T02:08:11;30.00;;;17.43;;
20956;SDS011;10637;47.970;7.830;2023-03-01T02:13:14;33.17;;;18.13;;
20956;SDS011;10637;47.970;7.830;2023-03-01T02:18:17;31.37;;;17.57;;
20956;SDS011;10637;47.970;7.830;2023-03-01T02:23:21;30.97;;;18.23;;
20956;SDS011;10637;47.970;7.830;2023-03-01T02:28:30;34.10;;;18.47;;
20956;SDS011;10637;47.970;7.830;2023-03-01T02:33:37;37.73;;;18.70;;
20956;SDS011;10637;47.970;7.830;2023-03-01T02:38:41;29.47;;;17.57;;
20956;SDS011;10637;47.970;7.830;2023-03-01T02:43:44;32.83;;;18.10;;
20956;SDS011;10637;47.970;7.830;2023-03-01T02:48:50;41.07;;;20.20;;
20956;SDS011;10637;47.970;7.830;2023-03-01T02:59:11;31.63;;;18.37;;
20956;SDS011;10637;47.970;7.830;2023-03-01T03:04:15;33.63;;;17.90;;
20956;SDS011;10637;47.970;7.830;2023-03-01T03:09:18;32.40;;;18.30;;
20956;SDS011;10637;47.970;7.830;2023-03-01T03:14:20;33.50;;;17.77;;
20956;SDS011;10637;47.970;7.830;2023-03-01T03:19:22;32.47;;;17.97;;
20956;SDS011;10637;47.970;7.830;2023-03-01T03:24:24;33.23;;;18.17;;
20956;SDS011;10637;47.970;7.830;2023-03-01T03:29:25;30.43;;;18.20;;
20956;SDS011;10637;47.970;7.830;2023-03-01T03:34:27;32.30;;;17.70;;
20956;SDS011;10637;47.970;7.830;2023-03-01T03:39:29;31.43;;;17.53;;
20956;SDS011;10637;47.970;7.830;2023-03-01T03:44:35;30.77;;;18.30;;
20956;SDS011;10637;47.970;7.830;2023-03-01T03:49:38;31.17;;;17.50;;
20956;SDS011;10637;47.970;7.830;2023-03-01T03:54:40;32.93;;;18.57;;
20956;SDS011;10637;47.970;7.830;2023-03-01T03:59:42;32.10;;;18.70;;
20956;SDS011;10637;47.970;7.830;2023-03-01T04:04:43;34.13;;;18.07;;
20956;SDS011;10637;47.970;7.830;2023-03-01T04:09:45;35.83;;;19.83;;
20956;SDS011;10637;47.970;7.830;2023-03-01T04:14:47;32.83;;;19.57;;
20956;SDS011;10637;47.970;7.830;2023-03-01T04:19:49;34.43;;;19.97;;
20956;SDS011;10637;47.970;7.830;2023-03-01T04:24:50;33.93;;;20.80;;
20956;SDS011;10637;47.970;7.830;2023-03-01T04:29:52;33.80;;;20.60;;
20956;SDS011;10637;47.970;7.830;2023-03-01T04:34:54;37.83;;;20.80;;
20956;SDS011;10637;47.970;7.830;2023-03-01T04:39:55;35.40;;;19.73;;
20956;SDS011;10637;47.970;7.830;2023-03-01T04:44:57;35.97;;;21.77;;
20956;SDS011;10637;47.970;7.830;2023-03-01T04:49:59;39.80;;;20.67;;
20956;SDS011;10637;47.970;7.830;2023-03-01T04:55:01;32.13;;;19.17;;
20956;SDS011;10637;47.970;7.830;2023-03-01T05:00:06;35.20;;;21.10;;
20956;SDS011;10637;47.970;7.830;2023-03-01T05:05:31;33.70;;;20.30;;
20956;SDS011;10637;47.970;7.830;2023-03-01T05:10:35;37.33;;;21.87;;
20956;SDS011;10637;47.970;7.830;2023-03-01T05:15:37;33.97;;;21.33;;
20956;SDS011;10637;47.970;7.830;2023-03-01T05:20:39;38.43;;;21.07;;
20956;SDS011;10637;47.970;7.830;2023-03-01T05:25:41;34.53;;;20.87;;
20956;SDS011;10637;47.970;7.830;2023-03-01T05:30:42;36.27;;;21.40;;
20956;SDS011;10637;47.970;7.830;2023-03-01T05:35:45;37.90;;;21.10;;
20956;SDS011;10637;47.970;7.830;2023-03-01T05:40:47;37.90;;;21.97;;
20956;SDS011;10637;47.970;7.830;2023-03-01T05:45:49;37.03;;;21.63;;
20956;SDS011;10637;47.970;7.830;2023-03-01T05:50:52;35.73;;;21.27;;
20956;SDS011;10637;47.970;7.830;2023-03-01T05:55:53;34.40;;;20.90;;
20956;SDS011;10637;47.970;7.830;2023-03-01T06:00:55;34.53;;;20.57;;
20956;SDS011;10637;47.970;7.830;2023-03-01T06:05:57;38.03;;;21.40;;
20956;SDS011;10637;47.970;7.830;2023-03-01T06:10:59;36.63;;;21.53;;
20956;SDS011;10637;47.970;7.830;2023-03-01T06:16:03;36.23;;;21.43;;
20956;SDS011;10637;47.970;7.830;2023-03-01T06:21:08;37.13;;;21.33;;
20956;SDS011;10637;47.970;7.830;2023-03-01T06:26:10;38.30;;;21.60;;
20956;SDS011;10637;47.970;7.830;2023-03-01T06:31:12;37.23;;;20.87;;
20956;SDS011;10637;47.970;7.830;2023-03-01T06:36:14;37.33;;;21.30;;
20956;SDS011;10637;47.970;7.830;2023-03-01T06:41:19;37.83;;;20.70;;
20956;SDS011;10637;47.970;7.830;2023-03-01T06:46:21;36.27;;;21.10;;
20956;SDS011;10637;47.970;7.830;2023-03-01T06:51:23;32.87;;;19.97;;
20956;SDS011;10637;47.970;7.830;2023-03-01T06:56:24;37.30;;;19.90;;
20956;SDS011;10637;47.970;7.830;2023-03-01T07:01:26;36.60;;;21.00;;
20956;SDS011;10637;47.970;7.830;2023-03-01T07:06:28;35.00;;;20.27;;
20956;SDS011;10637;47.970;7.830;2023-03-01T07:11:30;35.83;;;20.83;;
20956;SDS011;10637;47.970;7.830;2023-03-01T07:16:32;39.53;;;21.57;;
20956;SDS011;10637;47.970;7.830;2023-03-01T07:21:34;36.23;;;20.83;;
20956;SDS011;10637;47.970;7.830;2023-03-01T07:26:36;51.97;;;25.93;;
20956;SDS011;10637;47.970;7.830;2023-03-01T07:31:38;39.57;;;22.20;;
20956;SDS011;10637;47.970;7.830;2023-03-01T07:36:40;36.93;;;21.73;;
20956;SDS011;10637;47.970;7.830;2023-03-01T07:41:44;35.77;;;21.30;;
20956;SDS011;10637;47.970;7.830;2023-03-01T07:46:45;37.37;;;21.07;;
20956;SDS011;10637;47.970;7.830;2023-03-01T07:51:47;41.30;;;23.57;;
20956;SDS011;10637;47.970;7.830;2023-03-01T07:56:49;35.43;;;21.10;;
20956;SDS011;10637;47.970;7.830;2023-03-01T08:01:51;41.80;;;22.93;;
20956;SDS011;10637;47.970;7.830;2023-03-01T08:06:53;34.70;;;21.90;;
20956;SDS011;10637;47.970;7.830;2023-03-01T08:11:56;40.23;;;23.30;;
20956;SDS011;10637;47.970;7.830;2023-03-01T08:17:00;39.90;;;21.73;;
20956;SDS011;10637;47.970;7.830;2023-03-01T08:22:04;35.17;;;23.17;;
20956;SDS011;10637;47.970;7.830;2023-03-01T08:27:05;40.00;;;22.27;;
20956;SDS011;10637;47.970;7.830;2023-03-01T08:32:07;39.23;;;21.33;;
20956;SDS011;10637;47.970;7.830;2023-03-01T08:37:09;36.10;;;21.60;;
20956;SDS011;10637;47.970;7.830;2023-03-01T08:42:11;39.13;;;21.30;;
20956;SDS011;10637;47.970;7.830;2023-03-01T08:47:13;37.73;;;21.87;;
20956;SDS011;10637;47.970;7.830;2023-03-01T08:52:15;36.20;;;21.57;;
20956;SDS011;10637;47.970;7.830;2023-03-01T08:57:17;42.30;;;22.60;;
20956;SDS011;10637;47.970;7.830;2023-03-01T09:02:18;36.77;;;21.23;;
20956;SDS011;10637;47.970;7.830;2023-03-01T09:07:20;33.57;;;20.37;;
20956;SDS011;10637;47.970;7.830;2023-03-01T09:12:22;34.60;;;21.27;;
20956;SDS011;10637;47.970;7.830;2023-03-01T09:17:25;39.73;;;21.70;;
20956;SDS011;10637;47.970;7.830;2023-03-01T09:22:27;38.27;;;22.40;;
20956;SDS011;10637;47.970;7.830;2023-03-01T09:27:29;36.07;;;21.50;;
20956;SDS011;10637;47.970;7.830;2023-03-01T09:32:31;37.17;;;21.13;;
20956;SDS011;10637;47.970;7.830;2023-03-01T09:37:33;39.57;;;21.90;;
20956;SDS011;10637;47.970;7.830;2023-03-01T09:42:36;35.27;;;21.67;;
20956;SDS011;10637;47.970;7.830;2023-03-01T09:47:49;32.80;;;20.63;;
20956;SDS011;10637;47.970;7.830;2023-03-01T10:03:26;38.40;;;22.17;;
20956;SDS011;10637;47.970;7.830;2023-03-01T10:08:43;38.07;;;21.03;;
20956;SDS011;10637;47.970;7.830;2023-03-01T10:19:28;32.30;;;21.57;;
20956;SDS011;10637;47.970;7.830;2023-03-01T10:24:37;34.50;;;21.60;;
20956;SDS011;10637;47.970;7.830;2023-03-01T10:35:00;39.23;;;22.80;;
20956;SDS011;10637;47.970;7.830;2023-03-01T10:40:06;35.30;;;21.87;;
20956;SDS011;10637;47.970;7.830;2023-03-01T10:50:26;38.67;;;23.03;;
20956;SDS011;10637;47.970;7.830;2023-03-01T10:55:33;34.47;;;21.97;;
20956;SDS011;10637;47.970;7.830;2023-03-01T11:11:07;36.60;;;22.20;;
20956;SDS011;10637;47.970;7.830;2023-03-01T11:16:14;35.03;;;20.97;;
20956;SDS011;10637;47.970;7.830;2023-03-01T11:21:16;36.57;;;22.13;;
20956;SDS011;10637;47.970;7.830;2023-03-01T11:26:17;35.90;;;22.47;;
20956;SDS011;10637;47.970;7.830;2023-03-01T11:31:20;37.13;;;22.60;;
20956;SDS011;10637;47.970;7.830;2023-03-01T11:36:41;33.30;;;21.93;;
20956;SDS011;10637;47.970;7.830;2023-03-01T11:42:05;35.93;;;21.67;;
20956;SDS011;10637;47.970;7.830;2023-03-01T11:58:05;36.53;;;22.47;;
20956;SDS011;10637;47.970;7.830;2023-03-01T12:03:39;33.57;;;21.87;;
20956;SDS011;10637;47.970;7.830;2023-03-01T12:25:34;32.93;;;21.30;;
20956;SDS011;10637;47.970;7.830;2023-03-01T12:47:33;30.80;;;21.17;;
20956;SDS011;10637;47.970;7.830;2023-03-01T12:57:54;29.10;;;19.33;;
20956;SDS011;10637;47.970;7.830;2023-03-01T13:03:11;30.70;;;18.53;;
20956;SDS011;10637;47.970;7.830;2023-03-01T13:13:24;25.07;;;16.67;;
20956;SDS011;10637;47.970;7.830;2023-03-01T13:18:28;23.43;;;16.30;;
20956;SDS011;10637;47.970;7.830;2023-03-01T13:23:35;22.20;;;16.47;;
20956;SDS011;10637;47.970;7.830;2023-03-01T13:28:46;22.00;;;15.03;;
20956;SDS011;10637;47.970;7.830;2023-03-01T13:33:53;22.83;;;15.83;;
20956;SDS011;10637;47.970;7.830;2023-03-01T13:44:33;21.77;;;15.53;;
20956;SDS011;10637;47.970;7.830;2023-03-01T13:49:47;23.43;;;16.20;;
20956;SDS011;10637;47.970;7.830;2023-03-01T13:55:00;22.47;;;16.20;;
20956;SDS011;10637;47.970;7.830;2023-03-01T14:00:06;24.60;;;16.00;;
20956;SDS011;10637;47.970;7.830;2023-03-01T14:05:26;25.33;;;16.10;;
20956;SDS011;10637;47.970;7.830;2023-03-01T14:10:34;23.53;;;16.13;;
20956;SDS011;10637;47.970;7.830;2023-03-01T14:15:44;23.57;;;16.33;;
20956;SDS011;10637;47.970;7.830;2023-03-01T14:21:00;22.67;;;15.10;;
20956;SDS011;10637;47.970;7.830;2023-03-01T14:26:08;24.10;;;16.53;;
20956;SDS011;10637;47.970;7.830;2023-03-01T14:36:44;24.80;;;16.60;;
20956;SDS011;10637;47.970;7.830;2023-03-01T14:41:45;24.70;;;16.73;;
20956;SDS011;10637;47.970;7.830;2023-03-01T14:46:51;25.67;;;16.00;;
20956;SDS011;10637;47.970;7.830;2023-03-01T14:52:00;28.80;;;17.97;;
20956;SDS011;10637;47.970;7.830;2023-03-01T14:57:19;25.63;;;16.40;;
20956;SDS011;10637;47.970;7.830;2023-03-01T15:02:26;25.57;;;17.37;;
20956;SDS011;10637;47.970;7.830;2023-03-01T15:07:31;28.73;;;17.90;;
20956;SDS011;10637;47.970;7.830;2023-03-01T15:12:36;26.77;;;17.80;;
20956;SDS011;10637;47.970;7.830;2023-03-01T15:17:40;27.93;;;17.00;;
20956;SDS011;10637;47.970;7.830;2023-03-01T15:22:45;29.13;;;18.07;;
20956;SDS011;10637;47.970;7.830;2023-03-01T15:27:50;30.63;;;18.70;;
20956;SDS011;10637;47.970;7.830;2023-03-01T15:43:37;37.13;;;24.93;;
20956;SDS011;10637;47.970;7.830;2023-03-01T15:48:47;37.73;;;24.33;;
20956;SDS011;10637;47.970;7.830;2023-03-01T15:53:53;38.00;;;25.57;;
20956;SDS011;10637;47.970;7.830;2023-03-01T15:58:59;39.00;;;24.60;;
20956;SDS011;10637;47.970;7.830;2023-03-01T16:04:02;41.17;;;25.10;;
20956;SDS011;10637;47.970;7.830;2023-03-01T16:09:04;39.10;;;25.43;;
20956;SDS011;10637;47.970;7.830;2023-03-01T16:14:06;40.67;;;25.77;;
20956;SDS011;10637;47.970;7.830;2023-03-01T16:19:09;43.00;;;24.73;;
20956;SDS011;10637;47.970;7.830;2023-03-01T16:24:11;41.93;;;25.90;;
20956;SDS011;10637;47.970;7.830;2023-03-01T16:29:13;40.57;;;24.57;;
20956;SDS011;10637;47.970;7.830;2023-03-01T16:34:16;41.47;;;24.27;;
20956;SDS011;10637;47.970;7.830;2023-03-01T16:39:18;41.07;;;25.47;;
20956;SDS011;10637;47.970;7.830;2023-03-01T16:44:20;42.23;;;25.07;;
20956;SDS011;10637;47.970;7.830;2023-03-01T16:49:21;46.47;;;29.03;;
20956;SDS011;10637;47.970;7.830;2023-03-01T16:54:23;43.80;;;26.60;;
20956;SDS011;10637;47.970;7.830;2023-03-01T16:59:25;46.00;;;26.53;;
20956;SDS011;10637;47.970;7.830;2023-03-01T17:04:26;44.30;;;26.73;;
20956;SDS011;10637;47.970;7.830;2023-03-01T17:09:28;46.40;;;28.00;;
20956;SDS011;10637;47.970;7.830;2023-03-01T17:14:31;44.63;;;26.03;;
20956;SDS011;10637;47.970;7.830;2023-03-01T17:19:33;69.50;;;38.70;;
20956;SDS011;10637;47.970;7.830;2023-03-01T17:24:37;52.73;;;28.80;;
20956;SDS011;10637;47.970;7.830;2023-03-01T17:29:39;49.00;;;28.57;;
20956;SDS011;10637;47.970;7.830;2023-03-01T17:34:42;46.03;;;27.53;;
20956;SDS011;10637;47.970;7.830;2023-03-01T17:39:43;49.70;;;26.80;;
20956;SDS011;10637;47.970;7.830;2023-03-01T17:44:45;44.73;;;26.57;;
20956;SDS011;10637;47.970;7.830;2023-03-01T17:49:47;43.50;;;25.83;;
20956;SDS011;10637;47.970;7.830;2023-03-01T17:54:48;51.10;;;28.33;;
20956;SDS011;10637;47.970;7.830;2023-03-01T17:59:51;47.30;;;27.17;;
20956;SDS011;10637;47.970;7.830;2023-03-01T18:04:56;43.27;;;26.60;;
20956;SDS011;10637;47.970;7.830;2023-03-01T18:09:59;47.90;;;27.57;;
20956;SDS011;10637;47.970;7.830;2023-03-01T18:15:00;44.77;;;27.27;;
20956;SDS011;10637;47.970;7.830;2023-03-01T18:20:02;47.37;;;26.87;;
20956;SDS011;10637;47.970;7.830;2023-03-01T18:25:05;46.97;;;27.63;;
20956;SDS011;10637;47.970;7.830;2023-03-01T18:30:08;50.93;;;27.17;;
20956;SDS011;10637;47.970;7.830;2023-03-01T18:35:10;51.53;;;30.77;;
20956;SDS011;10637;47.970;7.830;2023-03-01T18:40:12;54.67;;;31.73;;
20956;SDS011;10637;47.970;7.830;2023-03-01T18:45:14;53.00;;;30.23;;
20956;SDS011;10637;47.970;7.830;2023-03-01T18:50:17;51.33;;;30.33;;
20956;SDS011;10637;47.970;7.830;2023-03-01T18:55:19;53.47;;;30.87;;
20956;SDS011;10637;47.970;7.830;2023-03-01T19:00:21;55.27;;;34.00;;
20956;SDS011;10637;47.970;7.830;2023-03-01T19:05:23;54.97;;;31.37;;
20956;SDS011;10637;47.970;7.830;2023-03-01T19:10:25;52.70;;;29.40;;
20956;SDS011;10637;47.970;7.830;2023-03-01T19:15:28;53.00;;;31.80;;
20956;SDS011;10637;47.970;7.830;2023-03-01T19:20:30;48.47;;;29.43;;
20956;SDS011;10637;47.970;7.830;2023-03-01T19:25:32;57.77;;;33.77;;
20956;SDS011;10637;47.970;7.830;2023-03-01T19:30:35;54.30;;;31.37;;
20956;SDS011;10637;47.970;7.830;2023-03-01T19:35:38;52.37;;;30.53;;
20956;SDS011;10637;47.970;7.830;2023-03-01T19:40:39;52.47;;;30.03;;
20956;SDS011;10637;47.970;7.830;2023-03-01T19:45:41;52.30;;;30.40;;
20956;SDS011;10637;47.970;7.830;2023-03-01T19:50:43;54.70;;;30.17;;
20956;SDS011;10637;47.970;7.830;2023-03-01T19:55:47;50.47;;;29.90;;
20956;SDS011;10637;47.970;7.830;2023-03-01T20:00:53;52.97;;;30.93;;
20956;SDS011;10637;47.970;7.830;2023-03-01T20:05:59;53.00;;;32.43;;
20956;SDS011;10637;47.970;7.830;2023-03-01T20:11:03;53.20;;;30.97;;
20956;SDS011;10637;47.970;7.830;2023-03-01T20:16:07;49.23;;;28.63;;
20956;SDS011;10637;47.970;7.830;2023-03-01T20:21:09;55.27;;;31.90;;
20956;SDS011;10637;47.970;7.830;2023-03-01T20:26:24;61.10;;;33.97;;
20956;SDS011;10637;47.970;7.830;2023-03-01T20:31:26;56.30;;;34.23;;
20956;SDS011;10637;47.970;7.830;2023-03-01T20:36:30;54.00;;;30.17;;
20956;SDS011;10637;47.970;7.830;2023-03-01T20:41:32;63.17;;;33.27;;
20956;SDS011;10637;47.970;7.830;2023-03-01T20:46:34;53.10;;;31.20;;
20956;SDS011;10637;47.970;7.830;2023-03-01T20:51:36;58.07;;;32.17;;
20956;SDS011;10637;47.970;7.830;2023-03-01T20:56:38;56.30;;;30.63;;
20956;SDS011;10637;47.970;7.830;2023-03-01T21:01:40;64.27;;;32.77;;
20956;SDS011;10637;47.970;7.830;2023-03-01T21:06:42;58.73;;;32.03;;
20956;SDS011;10637;47.970;7.830;2023-03-01T21:11:50;53.43;;;30.80;;
20956;SDS011;10637;47.970;7.830;2023-03-01T21:16:52;54.57;;;30.37;;
20956;SDS011;10637;47.970;7.830;2023-03-01T21:21:53;51.17;;;29.47;;
20956;SDS011;10637;47.970;7.830;2023-03-01T21:26:55;49.13;;;28.90;;
20956;SDS011;10637;47.970;7.830;2023-03-01T21:31:57;54.03;;;32.00;;
20956;SDS011;10637;47.970;7.830;2023-03-01T21:36:59;57.30;;;33.27;;
20956;SDS011;10637;47.970;7.830;2023-03-01T21:42:02;58.37;;;32.83;;
20956;SDS011;10637;47.970;7.830;2023-03-01T21:47:05;51.30;;;30.27;;
20956;SDS011;10637;47.970;7.830;2023-03-01T21:52:06;49.93;;;29.80;;
20956;SDS011;10637;47.970;7.830;2023-03-01T21:57:08;51.87;;;29.30;;
20956;SDS011;10637;47.970;7.830;2023-03-01T22:02:10;57.63;;;32.07;;
20956;SDS011;10637;47.970;7.830;2023-03-01T22:07:12;50.70;;;28.50;;
20956;SDS011;10637;47.970;7.830;2023-03-01T22:12:14;47.47;;;28.57;;
20956;SDS011;10637;47.970;7.830;2023-03-01T22:17:16;51.17;;;29.40;;
20956;SDS011;10637;47.970;7.830;2023-03-01T22:22:17;52.33;;;27.83;;
20956;SDS011;10637;47.970;7.830;2023-03-01T22:27:19;52.80;;;35.33;;
20956;SDS011;10637;47.970;7.830;2023-03-01T22:32:21;48.70;;;29.30;;
20956;SDS011;10637;47.970;7.830;2023-03-01T22:37:23;49.90;;;28.03;;
20956;SDS011;10637;47.970;7.830;2023-03-01T22:42:25;52.23;;;28.17;;
20956;SDS011;10637;47.970;7.830;2023-03-01T22:47:27;46.43;;;27.97;;
20956;SDS011;10637;47.970;7.830;2023-03-01T22:52:30;52.90;;;28.73;;
20956;SDS011;10637;47.970;7.830;2023-03-01T22:57:31;51.90;;;29.40;;
20956;SDS011;10637;47.970;7.830;2023-03-01T23:02:33;58.00;;;32.53;;
20956;SDS011;10637;47.970;7.830;2023-03-01T23:07:35;56.90;;;32.83;;
20956;SDS011;10637;47.970;7.830;2023-03-01T23:12:40;58.87;;;33.67;;
20956;SDS011;10637;47.970;7.830;2023-03-01T23:17:42;56.90;;;33.97;;
20956;SDS011;10637;47.970;7.830;2023-03-01T23:22:44;64.13;;;36.50;;
20956;SDS011;10637;47.970;7.830;2023-03-01T23:27:45;60.90;;;34.30;;
20956;SDS011;10637;47.970;7.830;2023-03-01T23:32:47;59.53;;;32.47;;
20956;SDS011;10637;47.970;7.830;2023-03-01T23:37:50;49.83;;;29.87;;
20956;SDS011;10637;47.970;7.830;2023-03-01T23:42:52;47.43;;;27.40;;
20956;SDS011;10637;47.970;7.830;2023-03-01T23:47:53;51.33;;;28.80;;
20956;SDS011;10637;47.970;7.830;2023-03-01T23:52:57;49.10;;;27.70;;
20956;SDS011;10637;47.970;7.830;2023-03-01T23:57:59;48.67;;;26.80;;
